SARS/PRQ METAR and TAF weather

Enter ICAO airport designator
Station Type Date Time Source
SARS METAR 2019/02/12 05:35 UTC NOAA

SARS 120535Z 25003KT 3000 TSRA FEW035CB OVC040 25/24 Q1010


Station Type Date Time Source
SARS Decoded METAR 2019/02/12 05:35 UTC NOAA

Presidencia Roque Saenz Pena Aerodrome, Argentina (SARS) 26-49S 060-27W 92M
Feb 12, 2019 - 12:35 AM EST / 2019.02.12 0535 UTC
Wind: from the WSW (250 degrees) at 3 MPH (3 KT):0
Visibility: 1 mile(s):0
Sky conditions: overcast
Weather: rain with thunder; Cumulonimbus clouds observed
Temperature: 77 F (25 C)
Dew Point: 75 F (24 C)
Relative Humidity: 94%
Pressure (altimeter): 29.83 in. Hg (1010 hPa)
ob: SARS 120535Z 25003KT 3000 TSRA FEW035CB OVC040 25/24 Q1010
cycle: 5

Station Type Date Time Source
SARS TAF UTC NOAA

Error!


Example: see airport list